Terminal Aerodrome Forecast
Issued by NWS

Home | Current Version | Previous Version | Text Only | Print | Product List | Glossary On
Versions: 1 2 3 4 5 6 7 8 9 10 11 12 13 14 15 16
000
FTUS43 KTOP 281156 CCA
TAFFOE
TAF COR
KFOE 281156Z 2812/2912 11011KT P6SM VCSH FEW008 OVC011
      TEMPO 2812/2814 OVC008
     FM281600 17008KT P6SM OVC018
     FM282100 VRB05KT P6SM BKN035
     FM290100 01009KT P6SM FEW008 OVC013
     FM290300 02014G18KT P6SM SHRA OVC008=

USA.gov is the U.S. government's official web portal to all federal, state and local government web resources and services.